Terminal Aerodrome Forecast
Issued by NWS

Current Version | Previous Version | Text Only | Print | Product List | Glossary On
Versions: 1 2 3 4 5 6 7 8 9 10 11 12 13 14 15 16 17 18 19 20 21 22 23 24 25 26 27 28 29 30 31 32 33 34 35 36 37
000
FTUS45 KSLC 231551 AAB
TAFOGD
TAF AMD
KOGD 231551Z 2316/2412 VRB04KT P6SM BKN035
     FM231700 30008KT P6SM VCSH BKN050
     FM232100 30010KT P6SM SCT060
     FM240300 17004KT P6SM FEW060=

USA.gov is the U.S. government's official web portal to all federal, state and local government web resources and services.